Kinetic-One Castle Combe TT, July 2014
Skip Navigation Links
Results
Race Series
Event Stats
09 July 2014
HyperLink
Page 1 of 1 (42 items)
Pos
Bib No
Fav
Share
Name
Time
Category
Cat Pos
Gender
Gen Pos
Club
Pace
Split 1
G/Pos
Lap 1
G/Pos
Lap 2
G/Pos
Lap 3
G/Pos
Lap 4
G/Pos
Lap 5
G/Pos
145Ben Anstie20:38.2Sen1Male1 29.1 m/hr1:41.113:42.213:46.013:49.613:47.913:51.11
224Pete Kibble21:47.5Jun1Male2 27.5 m/hr1:44.523:59.024:02.323:59.024:04.123:58.42
349Michael Davis22:04.7Sen2Male3Dursley RC27.2 m/hr1:46.534:02.034:04.034:04.334:08.133:59.73
425Mike Milstead22:52.9Sen3Male4Calne SMaRTT26.2 m/hr1:50.544:08.144:10.344:13.344:15.144:15.45
546Russ Thompson Chris Beardshaw22:54.4Vet1Male5Performance Cycles26.2 m/hr1:50.754:08.554:11.454:14.454:15.854:13.44
65Andy Morgan23:25.2Vet2Male6www.kinetic-one.co.uk25.6 m/hr1:53.474:19.164:15.564:20.464:20.464:16.27
738Ian Barrett23:41.0Vet3Male7Hi Elbow25.3 m/hr1:53.884:24.484:24.174:21.774:21.274:15.66
841Mike Cox24:06.5SupVet1Male8Cycology Bikes24.9 m/hr1:57.3104:23.974:24.684:27.894:27.084:25.69
936Ian Moore24:16.5SupVet2Male9Cycology Bikes24.7 m/hr2:00.2124:30.094:28.294:27.884:30.694:19.58
1031Sian Cahill24:34.9Sen1Female1Zappi's Cycling Club24.4 m/hr2:01.234:28.514:30.414:36.114:33.414:25.01
1132Danny Lake24:46.8Sen4Male10 24.2 m/hr1:53.364:30.2104:36.7114:35.5104:36.6114:34.311
1234Tim Purvey24:59.2Sen5Male11 24.0 m/hr1:56.194:36.8114:42.5134:37.9114:36.1104:29.510
1344Claire Parnell25:14.3Sen2Female2Performance Cycles23.8 m/hr1:51.114:37.424:40.834:41.624:45.224:38.02
1450David Western25:21.0Sen6Male12Mrg23.7 m/hr2:05.0164:37.0124:36.5104:39.0124:40.1124:43.115
1523Martin Langley25:33.0Sen7Male13Bath Cycling Club23.5 m/hr2:02.9144:37.4134:43.3144:44.9144:45.5154:38.812
1622Chrissie Waple25:38.4Sen3Female3 23.4 m/hr2:00.924:40.534:39.024:44.534:46.734:46.53
1743Matt Tibbles25:45.7Sen8Male14 23.3 m/hr2:01.1134:49.2184:47.9174:45.0154:42.7134:39.613
1835Tim Richards25:55.6Vet4Male15Events Logic UK23.1 m/hr2:11.2234:43.8154:47.7164:44.6134:42.8144:45.416
196David Smith26:04.2Vet5Male16 23.0 m/hr2:05.2174:45.8174:40.9124:48.6164:50.3164:53.218
2030Partner Michael26:08.3Vet6Male17 23.0 m/hr1:58.0114:42.8144:49.0184:55.3194:51.0174:51.917
217John Sinclair26:19.3SupVet3Male18 22.8 m/hr2:06.3204:50.8194:50.9194:54.6184:53.3184:43.114
2242Pete Tantrum26:20.3SupVet4Male19Didcot Phoenix CC22.8 m/hr2:09.2224:45.4164:46.7154:50.8174:54.6194:53.319
2320Fiona Nesfield26:24.9Sen4Female4 22.7 m/hr2:04.844:41.944:52.444:50.644:57.844:57.24
2421Graham Jones26:56.3SupVet5Male20 22.3 m/hr2:04.9154:52.9204:57.3204:57.2205:03.2205:00.522
2518Martin Ringrose27:27.9Vet7Male21 21.8 m/hr2:06.2194:59.3215:04.1215:08.8235:09.9234:59.321
2612Nigel Shires27:34.5SupVet6Male22 21.8 m/hr2:16.1255:09.7245:04.7225:01.1215:03.5214:59.120
2729Dick Martin27:42.7SupVet7Male23BAD Tri21.7 m/hr2:07.5215:04.8225:07.9235:11.9245:06.1225:04.223
2826Sophie-Joe Wylie-Morris27:44.1Jun1Female5M&D Cycles21.6 m/hr2:07.455:04.655:00.955:15.655:01.255:14.26
2916Andy Golesworthy28:04.2SupVet8Male24Swindon Road Club21.4 m/hr2:06.0185:09.0235:13.7245:07.7225:12.8245:14.725
3017Sian Ross28:32.3Sen5Female6 21.0 m/hr2:09.265:10.365:22.165:21.165:18.165:11.35
319Derek Morgan29:04.1SupVet601Male25Gannet CC20.6 m/hr2:27.5285:21.3265:22.3255:22.0255:19.9255:10.824
3219Zoe Ludwig-Tantrum29:13.9Vet1Female7Didcot Phoenix CC20.5 m/hr2:14.775:21.375:27.475:25.175:27.675:17.57
3333Stephen John Layman29:20.8Vet8Male26 20.4 m/hr2:12.8245:18.4255:34.8275:25.3265:28.9265:20.327
3415Bob Symons29:45.7SupVet9Male27Emersons Green Running Club20.2 m/hr2:16.9265:32.0275:30.5265:34.5275:33.7275:17.726
3527Caitlan Shaw30:05.8Jun2Female8M&D Cycles19.9 m/hr2:18.185:23.685:29.385:49.295:32.585:32.98
3610Graham Hewson30:30.6SupVet602Male28Simonstrong Campaigners19.7 m/hr2:21.8275:33.3285:42.5285:39.1285:43.2285:30.428
373Ellen Lovatt31:34.1Vet2Female9 19.0 m/hr2:29.3125:40.795:50.095:52.7105:57.4105:43.79
384Laura Sears32:06.5Vet3Female10 18.7 m/hr2:35.7135:54.7115:50.3106:00.3115:56.995:48.310
3937Lauren Booth32:25.5Jun3Female11Newport Velo18.5 m/hr2:21.395:53.6106:15.5135:31.086:16.2126:07.612
408Phillip Thomas32:34.9SupVet603Male29 18.4 m/hr2:34.9295:48.8296:02.3296:05.3296:04.9295:58.429
412Catherine Bowering32:41.5Sen6Female12Emersons Green Running Club18.4 m/hr2:23.4106:10.1136:01.0116:06.5125:58.4116:01.911
421Maria Mcintyre33:40.8Vet4Female13Emersons Green Running Club17.8 m/hr2:27.1116:08.3126:08.1126:23.9136:22.6136:10.413
Page 1 of 1 (42 items)
fb

HyperLink Copyright (c) G Vincent, 2017